Time;durP1;ratioP1;P1;durP2;ratioP2;P2;SDS_P1;SDS_P2;PMS_P1;PMS_P2;Temp;Humidity;BMP_temperature;BMP_pressure;BME280_temperature;BME280_humidity;BME280_pressure;Samples;Min_cycle;Max_cycle;Signal;HPM_P1;HPM_P2
2023/12/26 00:01:03;;;;;;;19.33;10.45;;;;;;;;;;6093371;29;20124;-86
2023/12/26 00:04:05;;;;;;;18.67;10.32;;;;;;;;;;6090544;29;20040;-87
2023/12/26 00:07:07;;;;;;;23.25;11.50;;;;;;;;;;6094938;29;20036;-87
2023/12/26 00:10:09;;;;;;;19.27;9.85;;;;;;;;;;6097595;29;20049;-87
2023/12/26 00:13:12;;;;;;;15.50;9.88;;;;;;;;;;6094590;29;20133;-85
2023/12/26 00:16:15;;;;;;;23.17;10.23;;;;;;;;;;6100102;29;20053;-86
2023/12/26 00:19:17;;;;;;;20.48;10.38;;;;;;;;;;6096848;29;20044;-86
2023/12/26 00:22:18;;;;;;;19.75;10.80;;;;;;;;;;6088758;29;20116;-87
2023/12/26 00:25:20;;;;;;;20.80;10.50;;;;;;;;;;6098493;29;20063;-86
2023/12/26 00:28:24;;;;;;;18.25;10.65;;;;;;;;;;6091363;29;20049;-86
2023/12/26 00:31:26;;;;;;;19.90;11.63;;;;;;;;;;6092142;29;20243;-86
2023/12/26 00:34:27;;;;;;;19.40;10.45;;;;;;;;;;6092337;29;20048;-86
2023/12/26 00:37:31;;;;;;;17.67;10.60;;;;;;;;;;6090903;29;20056;-85
2023/12/26 00:40:33;;;;;;;19.80;10.75;;;;;;;;;;6091387;29;20045;-86
2023/12/26 00:43:36;;;;;;;17.20;9.95;;;;;;;;;;6085521;29;20063;-88
2023/12/26 00:46:38;;;;;;;23.07;11.90;;;;;;;;;;6089410;29;20044;-87
2023/12/26 00:49:40;;;;;;;20.08;11.13;;;;;;;;;;6087043;29;20464;-86
2023/12/26 00:52:42;;;;;;;19.48;11.65;;;;;;;;;;6090519;29;20084;-86
2023/12/26 00:55:44;;;;;;;21.02;11.63;;;;;;;;;;6092693;29;20048;-88
2023/12/26 00:58:48;;;;;;;17.02;11.10;;;;;;;;;;6094513;29;20112;-86
2023/12/26 01:01:49;;;;;;;18.47;12.60;;;;;;;;;;6090094;29;20044;-86
2023/12/26 01:04:51;;;;;;;23.13;12.60;;;;;;;;;;6096809;29;20057;-87
2023/12/26 01:07:53;;;;;;;20.70;12.52;;;;;;;;;;6102080;29;20048;-86
2023/12/26 01:10:55;;;;;;;22.48;12.55;;;;;;;;;;6098640;29;20072;-86
2023/12/26 01:13:58;;;;;;;22.63;13.98;;;;;;;;;;6098412;29;20059;-86
2023/12/26 01:17:00;;;;;;;21.58;12.88;;;;;;;;;;6099478;29;20116;-86
2023/12/26 01:20:03;;;;;;;26.20;14.55;;;;;;;;;;6094908;29;20044;-86
2023/12/26 01:23:05;;;;;;;24.20;13.38;;;;;;;;;;6098834;29;20074;-87
2023/12/26 01:26:07;;;;;;;21.58;13.77;;;;;;;;;;6106820;29;20049;-86
2023/12/26 01:29:11;;;;;;;20.73;13.27;;;;;;;;;;6099910;29;20053;-87
2023/12/26 01:32:12;;;;;;;24.98;15.10;;;;;;;;;;6100079;29;20057;-86
2023/12/26 01:35:14;;;;;;;22.95;13.88;;;;;;;;;;6099201;29;20067;-86
2023/12/26 01:38:16;;;;;;;20.63;12.98;;;;;;;;;;6094152;29;20067;-84
2023/12/26 01:41:18;;;;;;;21.83;13.38;;;;;;;;;;6097202;29;20112;-85
2023/12/26 01:44:21;;;;;;;22.00;13.70;;;;;;;;;;6094169;29;20063;-87
2023/12/26 01:47:23;;;;;;;21.83;13.35;;;;;;;;;;6085687;29;20053;-87
2023/12/26 01:50:25;;;;;;;22.95;13.93;;;;;;;;;;6089809;29;20045;-85
2023/12/26 01:53:27;;;;;;;24.23;14.13;;;;;;;;;;6090605;29;20045;-86
2023/12/26 01:56:29;;;;;;;22.95;15.07;;;;;;;;;;6092432;29;20105;-86
2023/12/26 01:59:33;;;;;;;21.73;14.25;;;;;;;;;;6093366;29;20069;-86
2023/12/26 02:02:35;;;;;;;25.80;14.98;;;;;;;;;;6092458;29;20045;-86
2023/12/26 02:05:38;;;;;;;25.65;15.93;;;;;;;;;;6092423;29;20416;-86
2023/12/26 02:08:41;;;;;;;28.13;15.82;;;;;;;;;;6097692;29;20080;-86
2023/12/26 02:11:43;;;;;;;31.15;18.20;;;;;;;;;;6096297;29;20053;-86
2023/12/26 02:14:47;;;;;;;27.15;16.85;;;;;;;;;;6098569;29;20125;-86
2023/12/26 02:17:50;;;;;;;23.23;14.57;;;;;;;;;;6095031;29;20340;-86
2023/12/26 02:20:52;;;;;;;23.00;15.63;;;;;;;;;;6100563;29;20044;-86
2023/12/26 02:23:56;;;;;;;24.50;16.20;;;;;;;;;;6098340;29;20052;-86
2023/12/26 02:26:59;;;;;;;26.55;16.98;;;;;;;;;;6098044;29;20064;-87
2023/12/26 02:30:02;;;;;;;25.52;16.10;;;;;;;;;;6101768;29;20067;-87
2023/12/26 02:33:06;;;;;;;25.67;16.25;;;;;;;;;;6104169;29;20060;-87
2023/12/26 02:36:08;;;;;;;23.70;16.92;;;;;;;;;;6104971;29;20276;-85
2023/12/26 02:39:11;;;;;;;31.50;16.58;;;;;;;;;;6098838;29;20071;-86
2023/12/26 02:42:17;;;;;;;24.10;16.63;;;;;;;;;;6101941;29;20063;-86
2023/12/26 02:45:19;;;;;;;25.42;16.90;;;;;;;;;;6099011;29;20129;-87
2023/12/26 02:48:21;;;;;;;30.67;18.02;;;;;;;;;;6103795;29;20065;-87
2023/12/26 02:51:23;;;;;;;28.45;18.55;;;;;;;;;;6097446;29;20053;-86
2023/12/26 02:54:27;;;;;;;26.08;17.25;;;;;;;;;;6099420;29;20056;-86
2023/12/26 02:57:29;;;;;;;27.90;17.50;;;;;;;;;;6097298;29;20352;-86
2023/12/26 03:00:32;;;;;;;24.38;16.55;;;;;;;;;;6099048;29;20049;-86
2023/12/26 03:03:34;;;;;;;25.33;16.70;;;;;;;;;;6096943;29;20112;-86
2023/12/26 03:06:36;;;;;;;28.40;17.35;;;;;;;;;;6096791;29;20044;-88
2023/12/26 03:09:40;;;;;;;27.77;17.23;;;;;;;;;;6103559;29;20044;-86
2023/12/26 03:12:42;;;;;;;27.20;18.40;;;;;;;;;;6094945;29;20128;-86
2023/12/26 03:15:44;;;;;;;31.48;19.27;;;;;;;;;;6098394;28;20056;-86
2023/12/26 03:18:46;;;;;;;29.05;19.50;;;;;;;;;;6094105;29;20063;-87
2023/12/26 03:21:49;;;;;;;32.40;19.27;;;;;;;;;;6101730;29;20087;-87
2023/12/26 03:24:53;;;;;;;33.70;19.35;;;;;;;;;;6099600;29;20037;-87
2023/12/26 03:27:58;;;;;;;25.67;17.60;;;;;;;;;;6101026;29;20044;-87
2023/12/26 03:31:02;;;;;;;29.58;19.38;;;;;;;;;;6099503;29;20068;-86
2023/12/26 03:34:04;;;;;;;29.20;19.48;;;;;;;;;;6099870;29;20124;-87
2023/12/26 03:37:06;;;;;;;28.67;19.17;;;;;;;;;;6098082;29;20066;-86
2023/12/26 03:40:11;;;;;;;30.35;20.05;;;;;;;;;;6095104;29;20101;-87
2023/12/26 03:43:13;;;;;;;31.98;20.20;;;;;;;;;;6097884;29;20128;-87
2023/12/26 03:46:14;;;;;;;28.40;19.90;;;;;;;;;;6101566;28;20055;-85
2023/12/26 03:49:16;;;;;;;33.03;19.95;;;;;;;;;;6101216;29;20055;-86
2023/12/26 03:52:18;;;;;;;30.02;20.17;;;;;;;;;;6099342;29;20052;-87
2023/12/26 03:55:22;;;;;;;30.98;20.92;;;;;;;;;;6097359;29;20071;-86
2023/12/26 03:58:27;;;;;;;35.08;21.67;;;;;;;;;;6098750;29;20048;-86
2023/12/26 04:01:30;;;;;;;35.78;20.83;;;;;;;;;;6102478;29;20049;-86
2023/12/26 04:04:32;;;;;;;30.63;21.13;;;;;;;;;;6106045;29;20052;-86
2023/12/26 04:07:34;;;;;;;32.03;21.25;;;;;;;;;;6095570;29;20376;-86
2023/12/26 04:10:37;;;;;;;35.85;22.20;;;;;;;;;;6097864;29;20064;-86
2023/12/26 04:13:40;;;;;;;34.60;21.97;;;;;;;;;;6099441;29;20032;-86
2023/12/26 04:16:42;;;;;;;38.08;22.92;;;;;;;;;;6101812;29;20049;-87
2023/12/26 04:19:44;;;;;;;33.65;21.40;;;;;;;;;;6092127;29;20056;-87
2023/12/26 04:22:46;;;;;;;31.48;20.85;;;;;;;;;;6096310;29;20036;-86
2023/12/26 04:25:50;;;;;;;39.55;22.75;;;;;;;;;;6096485;29;20055;-86
2023/12/26 04:28:52;;;;;;;;;;;;;;;;;;6101597;29;20073;-86
2023/12/26 04:31:54;;;;;;;30.67;21.10;;;;;;;;;;6092695;29;19958;-87
2023/12/26 04:34:56;;;;;;;34.70;20.77;;;;;;;;;;6097350;29;20101;-86
2023/12/26 04:37:59;;;;;;;35.42;22.52;;;;;;;;;;6103888;29;20041;-87
2023/12/26 04:41:02;;;;;;;32.03;21.38;;;;;;;;;;6100239;29;20052;-87
2023/12/26 04:44:04;;;;;;;32.55;22.25;;;;;;;;;;6093660;29;20068;-86
2023/12/26 04:47:06;;;;;;;31.55;21.83;;;;;;;;;;6099260;29;20044;-86
2023/12/26 04:50:09;;;;;;;36.15;22.27;;;;;;;;;;6095375;29;20092;-87
2023/12/26 04:53:12;;;;;;;32.08;22.52;;;;;;;;;;6095220;29;20056;-86
2023/12/26 04:56:18;;;;;;;35.13;22.70;;;;;;;;;;6095747;29;20057;-86
2023/12/26 04:59:20;;;;;;;37.20;22.38;;;;;;;;;;6096244;29;20056;-86
2023/12/26 05:02:22;;;;;;;35.08;23.30;;;;;;;;;;6095531;29;20096;-87
2023/12/26 05:05:24;;;;;;;32.95;22.27;;;;;;;;;;6097805;29;20037;-86
2023/12/26 05:08:26;;;;;;;34.00;22.33;;;;;;;;;;6094691;29;20042;-87
2023/12/26 05:11:29;;;;;;;34.50;22.35;;;;;;;;;;6103222;29;20060;-86
2023/12/26 05:14:32;;;;;;;37.53;23.20;;;;;;;;;;6094165;29;20101;-86
2023/12/26 05:17:34;;;;;;;35.90;22.55;;;;;;;;;;6101365;29;20052;-86
2023/12/26 05:20:36;;;;;;;34.75;22.23;;;;;;;;;;6103366;29;20056;-87
2023/12/26 05:23:38;;;;;;;33.60;22.17;;;;;;;;;;6097759;29;20041;-87
2023/12/26 05:26:42;;;;;;;31.77;20.95;;;;;;;;;;6097843;29;20370;-86
2023/12/26 05:29:44;;;;;;;30.92;21.63;;;;;;;;;;6099949;29;20048;-87
2023/12/26 05:32:46;;;;;;;31.98;21.30;;;;;;;;;;6097629;29;20055;-86
2023/12/26 05:35:49;;;;;;;32.42;19.55;;;;;;;;;;6095903;29;20060;-87
2023/12/26 05:38:51;;;;;;;32.85;21.48;;;;;;;;;;6094694;29;20180;-87
2023/12/26 05:41:55;;;;;;;33.95;20.52;;;;;;;;;;6092303;29;20060;-87
2023/12/26 05:44:57;;;;;;;35.75;21.17;;;;;;;;;;6098161;29;20306;-88
2023/12/26 05:47:59;;;;;;;32.90;21.10;;;;;;;;;;6094416;29;20065;-87
2023/12/26 05:51:01;;;;;;;30.45;20.80;;;;;;;;;;6093776;29;20060;-86
2023/12/26 05:54:02;;;;;;;35.50;21.60;;;;;;;;;;6094166;29;20041;-86
2023/12/26 05:57:06;;;;;;;33.13;21.02;;;;;;;;;;6098062;29;20052;-86
2023/12/26 06:00:09;;;;;;;;;;;;;;;;;;6097391;29;20121;-86
2023/12/26 06:03:12;;;;;;;31.98;20.75;;;;;;;;;;6100585;29;19919;-86
2023/12/26 06:06:14;;;;;;;33.47;21.33;;;;;;;;;;6098455;29;20036;-88
2023/12/26 06:09:17;;;;;;;31.02;21.27;;;;;;;;;;6097338;29;20064;-86
2023/12/26 06:12:23;;;;;;;35.42;22.48;;;;;;;;;;6100359;29;20041;-87
2023/12/26 06:15:25;;;;;;;36.53;22.88;;;;;;;;;;6101679;29;20064;-86
2023/12/26 06:18:27;;;;;;;37.90;22.35;;;;;;;;;;6098592;29;20060;-87
2023/12/26 06:21:29;;;;;;;34.75;22.55;;;;;;;;;;6100347;29;20040;-87
2023/12/26 06:24:31;;;;;;;35.47;22.35;;;;;;;;;;6101354;29;20044;-87
2023/12/26 06:27:34;;;;;;;33.33;22.33;;;;;;;;;;6098274;29;20056;-87
2023/12/26 06:30:36;;;;;;;31.33;20.87;;;;;;;;;;6096175;29;20059;-87
2023/12/26 06:33:39;;;;;;;29.85;20.38;;;;;;;;;;6104130;29;20378;-85
2023/12/26 06:36:41;;;;;;;36.22;21.48;;;;;;;;;;6100621;29;20114;-86
2023/12/26 06:39:44;;;;;;;33.47;21.05;;;;;;;;;;6101068;29;20176;-87
2023/12/26 06:42:47;;;;;;;32.30;21.58;;;;;;;;;;6098226;29;20561;-87
2023/12/26 06:45:49;;;;;;;32.42;21.27;;;;;;;;;;6102908;29;20048;-87
2023/12/26 06:48:51;;;;;;;29.63;21.52;;;;;;;;;;6101946;29;20052;-88
2023/12/26 06:51:54;;;;;;;35.08;21.83;;;;;;;;;;6097998;29;20092;-86
2023/12/26 06:54:56;;;;;;;33.92;22.40;;;;;;;;;;6099425;29;20067;-86
2023/12/26 06:58:00;;;;;;;39.80;21.90;;;;;;;;;;6098709;29;20122;-86
2023/12/26 07:01:02;;;;;;;32.03;21.90;;;;;;;;;;6092428;29;20059;-86
2023/12/26 07:04:05;;;;;;;30.92;21.60;;;;;;;;;;6089537;29;20049;-87
2023/12/26 07:07:07;;;;;;;32.28;21.95;;;;;;;;;;6097704;29;20044;-87
2023/12/26 07:10:12;;;;;;;33.03;21.38;;;;;;;;;;6089389;29;20097;-88
2023/12/26 07:13:15;;;;;;;36.10;22.58;;;;;;;;;;6085641;29;20065;-87
2023/12/26 07:16:18;;;;;;;30.70;20.83;;;;;;;;;;6077271;29;20100;-88
2023/12/26 07:19:20;;;;;;;34.95;21.83;;;;;;;;;;6077134;29;20053;-88
2023/12/26 07:22:21;;;;;;;33.80;21.48;;;;;;;;;;6078751;29;20089;-87
2023/12/26 07:25:23;;;;;;;35.25;21.38;;;;;;;;;;6079912;29;21025;-87
2023/12/26 07:28:26;;;;;;;33.10;21.67;;;;;;;;;;6081189;29;20233;-91
2023/12/26 07:31:28;;;;;;;35.13;21.80;;;;;;;;;;6077876;29;20052;-88
2023/12/26 07:34:29;;;;;;;31.40;21.58;;;;;;;;;;6078223;29;20052;-89
2023/12/26 07:37:32;;;;;;;40.85;22.17;;;;;;;;;;6080387;29;20057;-89
2023/12/26 07:40:34;;;;;;;33.97;21.92;;;;;;;;;;6079495;29;20056;-87
2023/12/26 07:43:37;;;;;;;30.40;21.70;;;;;;;;;;6075901;29;20355;-88
2023/12/26 07:46:39;;;;;;;36.65;22.02;;;;;;;;;;6078464;29;20113;-88
2023/12/26 07:49:40;;;;;;;34.20;22.00;;;;;;;;;;6077581;29;20056;-89
2023/12/26 07:52:42;;;;;;;38.50;22.23;;;;;;;;;;6082815;29;20064;-88
2023/12/26 07:55:44;;;;;;;35.38;22.52;;;;;;;;;;6075959;29;20048;-87
2023/12/26 07:58:47;;;;;;;32.70;21.60;;;;;;;;;;6075658;29;20049;-80
2023/12/26 08:01:49;;;;;;;34.57;22.17;;;;;;;;;;6078083;29;20048;-81
2023/12/26 08:04:51;;;;;;;34.50;22.67;;;;;;;;;;6077552;29;20911;-88
2023/12/26 08:07:52;;;;;;;32.00;21.10;;;;;;;;;;6079374;29;20344;-87
2023/12/26 08:10:54;;;;;;;35.63;20.77;;;;;;;;;;6077869;29;20063;-88
2023/12/26 08:13:57;;;;;;;35.40;21.48;;;;;;;;;;6076502;29;20056;-85
2023/12/26 08:16:59;;;;;;;31.77;20.50;;;;;;;;;;6075921;29;20063;-85
2023/12/26 08:20:01;;;;;;;28.92;19.13;;;;;;;;;;6076017;29;20788;-84
2023/12/26 08:23:03;;;;;;;28.58;18.50;;;;;;;;;;6073967;29;20045;-85
2023/12/26 08:26:06;;;;;;;28.83;18.52;;;;;;;;;;6077938;29;20340;-86
2023/12/26 08:29:09;;;;;;;26.48;18.73;;;;;;;;;;6075837;29;20044;-86
2023/12/26 08:32:11;;;;;;;33.88;19.58;;;;;;;;;;6075553;29;20382;-85
2023/12/26 08:35:13;;;;;;;29.25;19.98;;;;;;;;;;6077561;29;20281;-85
2023/12/26 08:38:15;;;;;;;32.60;21.55;;;;;;;;;;6075616;29;20052;-85
2023/12/26 08:41:16;;;;;;;28.10;19.20;;;;;;;;;;6074008;29;20096;-87
2023/12/26 08:44:19;;;;;;;32.90;19.85;;;;;;;;;;6078504;29;20060;-86
2023/12/26 08:47:21;;;;;;;28.10;19.33;;;;;;;;;;6078359;29;20408;-85
2023/12/26 08:50:23;;;;;;;27.83;18.65;;;;;;;;;;6078656;29;20056;-84
2023/12/26 08:53:25;;;;;;;30.77;18.35;;;;;;;;;;6072745;29;20056;-85
2023/12/26 08:56:26;;;;;;;93.80;23.75;;;;;;;;;;6074068;29;20142;-86
2023/12/26 08:59:29;;;;;;;40.15;18.95;;;;;;;;;;6074563;29;20109;-87
2023/12/26 09:02:31;;;;;;;35.05;19.15;;;;;;;;;;6074691;29;20082;-87
2023/12/26 09:05:33;;;;;;;32.28;19.27;;;;;;;;;;6069814;29;20045;-84
2023/12/26 09:08:35;;;;;;;32.33;17.73;;;;;;;;;;6076965;29;20266;-87
2023/12/26 09:11:36;;;;;;;27.23;17.58;;;;;;;;;;6076096;29;20120;-84
2023/12/26 09:14:39;;;;;;;28.25;17.20;;;;;;;;;;6084875;29;20059;-85
2023/12/26 09:17:41;;;;;;;30.45;17.38;;;;;;;;;;6074321;29;20048;-84
2023/12/26 09:20:43;;;;;;;26.38;16.40;;;;;;;;;;6071217;29;20055;-84
2023/12/26 09:23:45;;;;;;;29.13;16.38;;;;;;;;;;6076149;29;20075;-85
2023/12/26 09:26:46;;;;;;;32.13;16.30;;;;;;;;;;6076695;29;20048;-84
2023/12/26 09:29:49;;;;;;;22.83;14.95;;;;;;;;;;6076601;29;20060;-84
2023/12/26 09:32:51;;;;;;;23.10;15.13;;;;;;;;;;6077836;29;20052;-85
2023/12/26 09:35:53;;;;;;;26.13;14.65;;;;;;;;;;6080792;29;20060;-86
2023/12/26 09:38:55;;;;;;;25.17;14.23;;;;;;;;;;6081067;29;20059;-87
2023/12/26 09:41:57;;;;;;;21.83;13.48;;;;;;;;;;6079029;29;20105;-88
2023/12/26 09:45:02;;;;;;;19.95;13.27;;;;;;;;;;6084936;29;20138;-90
2023/12/26 09:48:04;;;;;;;21.58;12.52;;;;;;;;;;6082589;29;20378;-90
2023/12/26 09:51:11;;;;;;;21.77;13.85;;;;;;;;;;6083440;29;20041;-91
2023/12/26 09:54:13;;;;;;;19.05;12.45;;;;;;;;;;6081730;29;20049;-90
2023/12/26 09:57:16;;;;;;;18.27;12.02;;;;;;;;;;6083837;29;20277;-90
2023/12/26 10:00:19;;;;;;;17.00;11.73;;;;;;;;;;6083982;29;20057;-89
2023/12/26 10:03:22;;;;;;;19.92;12.02;;;;;;;;;;6084632;29;20362;-91
2023/12/26 10:06:24;;;;;;;21.17;12.45;;;;;;;;;;6079939;29;20109;-92
2023/12/26 10:09:26;;;;;;;18.00;11.75;;;;;;;;;;6082425;29;20096;-89
2023/12/26 10:12:28;;;;;;;22.05;10.88;;;;;;;;;;6081750;29;20049;-90
2023/12/26 10:15:31;;;;;;;19.33;12.25;;;;;;;;;;6083031;29;20121;-91
2023/12/26 10:18:33;;;;;;;19.48;11.48;;;;;;;;;;6080890;29;20049;-91
2023/12/26 10:21:35;;;;;;;18.50;10.73;;;;;;;;;;6078743;29;20060;-83
2023/12/26 10:24:37;;;;;;;18.23;10.90;;;;;;;;;;6077726;29;20053;-82
2023/12/26 10:27:39;;;;;;;16.73;11.07;;;;;;;;;;6082685;29;20059;-91
2023/12/26 10:30:42;;;;;;;19.58;11.10;;;;;;;;;;6080609;29;20049;-83
2023/12/26 10:33:44;;;;;;;18.63;11.83;;;;;;;;;;6081865;29;20104;-89
2023/12/26 10:36:47;;;;;;;21.38;12.02;;;;;;;;;;6083848;29;20053;-89
2023/12/26 10:39:49;;;;;;;18.52;11.95;;;;;;;;;;6079413;29;20063;-90
2023/12/26 10:42:51;;;;;;;17.38;10.75;;;;;;;;;;6080034;29;20056;-89
2023/12/26 10:45:56;;;;;;;18.83;11.15;;;;;;;;;;6079898;29;20056;-87
2023/12/26 10:49:04;;;;;;;16.75;10.93;;;;;;;;;;6089002;29;20048;-83
2023/12/26 10:52:07;;;;;;;16.15;10.95;;;;;;;;;;6079919;29;20041;-91
2023/12/26 10:55:10;;;;;;;18.17;10.02;;;;;;;;;;6080254;29;20085;-90
2023/12/26 10:58:12;;;;;;;16.02;11.02;;;;;;;;;;6081957;29;20113;-91
2023/12/26 11:01:15;;;;;;;24.00;10.05;;;;;;;;;;6079459;29;20240;-90
2023/12/26 11:04:17;;;;;;;18.80;10.85;;;;;;;;;;6078435;29;20301;-91
2023/12/26 11:07:18;;;;;;;16.50;9.27;;;;;;;;;;6078382;29;20045;-92
2023/12/26 11:10:19;;;;;;;15.25;10.05;;;;;;;;;;6078139;29;20079;-90
2023/12/26 11:13:20;;;;;;;16.45;9.80;;;;;;;;;;6080957;29;20053;-90
2023/12/26 11:16:23;;;;;;;14.93;9.50;;;;;;;;;;6081794;29;20131;-90
2023/12/26 11:19:24;;;;;;;16.48;9.63;;;;;;;;;;6081322;29;20045;-91
2023/12/26 11:22:26;;;;;;;19.00;9.50;;;;;;;;;;6086062;29;20348;-90
2023/12/26 11:25:26;;;;;;;19.02;9.10;;;;;;;;;;6085290;29;20067;-90
2023/12/26 11:28:28;;;;;;;15.63;9.40;;;;;;;;;;6081131;29;20322;-90
2023/12/26 11:31:31;;;;;;;18.75;9.32;;;;;;;;;;6080919;29;20073;-90
2023/12/26 11:34:32;;;;;;;17.52;9.73;;;;;;;;;;6079010;29;20064;-93
2023/12/26 11:37:33;;;;;;;17.40;8.68;;;;;;;;;;6080354;29;20054;-91
2023/12/26 11:40:35;;;;;;;15.05;8.38;;;;;;;;;;6077775;29;20045;-92
2023/12/26 11:43:36;;;;;;;16.17;9.60;;;;;;;;;;6079841;29;20056;-93
2023/12/26 11:46:39;;;;;;;17.67;9.93;;;;;;;;;;6077280;29;20044;-86
2023/12/26 11:49:40;;;;;;;13.57;8.40;;;;;;;;;;6080103;29;20051;-90
2023/12/26 11:52:42;;;;;;;16.13;8.77;;;;;;;;;;6079261;29;20056;-91
2023/12/26 11:55:43;;;;;;;18.73;9.23;;;;;;;;;;6077775;29;20056;-90
2023/12/26 11:58:45;;;;;;;17.77;9.80;;;;;;;;;;6076511;29;20115;-88
2023/12/26 12:01:47;;;;;;;21.27;9.63;;;;;;;;;;6079828;29;20088;-91
2023/12/26 12:04:48;;;;;;;19.10;10.27;;;;;;;;;;6076857;29;20122;-87
2023/12/26 12:08:10;;;;;;;18.77;10.73;;;;;;;;;;6075762;29;20045;-89
2023/12/26 12:11:13;;;;;;;15.00;9.85;;;;;;;;;;6081301;29;20132;-89
2023/12/26 12:14:15;;;;;;;15.47;9.40;;;;;;;;;;6074442;29;20049;-92
2023/12/26 12:17:18;;;;;;;15.80;8.52;;;;;;;;;;6080571;29;20044;-90
2023/12/26 12:20:19;;;;;;;16.60;9.00;;;;;;;;;;6079283;29;20366;-92
2023/12/26 12:23:20;;;;;;;14.80;8.85;;;;;;;;;;6078056;29;20048;-93
2023/12/26 12:26:21;;;;;;;16.52;9.43;;;;;;;;;;6082930;29;20062;-93
2023/12/26 12:29:23;;;;;;;16.63;9.50;;;;;;;;;;6084664;29;20048;-93
2023/12/26 12:32:31;;;;;;;17.25;9.63;;;;;;;;;;6085904;29;20056;-93
2023/12/26 12:35:33;;;;;;;16.90;9.35;;;;;;;;;;6085282;29;20102;-91
2023/12/26 12:38:33;;;;;;;22.80;10.20;;;;;;;;;;6086570;29;20060;-93
2023/12/26 12:41:35;;;;;;;14.85;8.93;;;;;;;;;;6082476;29;20056;-92
2023/12/26 12:44:36;;;;;;;15.48;9.13;;;;;;;;;;6081176;29;20047;-93
2023/12/26 12:47:39;;;;;;;18.40;8.95;;;;;;;;;;6083558;29;20061;-93
2023/12/26 12:50:40;;;;;;;17.63;10.07;;;;;;;;;;6083828;29;20052;-92
2023/12/26 12:53:42;;;;;;;20.17;11.40;;;;;;;;;;6079570;29;20456;-94
2023/12/26 12:56:43;;;;;;;14.65;10.45;;;;;;;;;;6080964;29;20063;-92
2023/12/26 12:59:44;;;;;;;20.33;11.77;;;;;;;;;;6076875;29;20229;-93
2023/12/26 13:02:46;;;;;;;19.42;10.95;;;;;;;;;;6078907;29;20045;-93
2023/12/26 13:05:48;;;;;;;19.75;12.05;;;;;;;;;;6077621;29;20072;-92
2023/12/26 13:08:49;;;;;;;16.75;10.85;;;;;;;;;;6079830;29;20045;-93
2023/12/26 13:11:51;;;;;;;19.48;11.82;;;;;;;;;;6083914;29;20063;-93
2023/12/26 13:14:51;;;;;;;21.52;11.48;;;;;;;;;;6083673;29;20060;-93
2023/12/26 13:17:54;;;;;;;20.10;11.10;;;;;;;;;;6083005;29;20072;-93
2023/12/26 13:20:55;;;;;;;17.73;11.20;;;;;;;;;;6084193;29;20050;-93
2023/12/26 13:23:57;;;;;;;17.10;11.27;;;;;;;;;;6085604;29;20056;-91
2023/12/26 13:26:58;;;;;;;19.80;11.13;;;;;;;;;;6083801;29;20044;-92
2023/12/26 13:29:59;;;;;;;23.52;11.60;;;;;;;;;;6083542;29;20089;-95
2023/12/26 13:33:01;;;;;;;21.63;11.40;;;;;;;;;;6084153;29;20281;-92
2023/12/26 13:36:03;;;;;;;17.13;11.75;;;;;;;;;;6080190;29;20443;-93
2023/12/26 13:39:04;;;;;;;18.02;10.43;;;;;;;;;;6083999;29;20055;-92
2023/12/26 13:42:06;;;;;;;24.13;11.93;;;;;;;;;;6080224;29;20053;-93
2023/12/26 13:45:12;;;;;;;20.23;11.25;;;;;;;;;;6082918;29;20229;-91
2023/12/26 13:48:16;;;;;;;22.90;12.15;;;;;;;;;;6080836;29;20253;-92
2023/12/26 13:51:16;;;;;;;21.50;12.73;;;;;;;;;;6081997;29;20103;-93
2023/12/26 13:54:20;;;;;;;21.73;12.35;;;;;;;;;;6082997;29;20048;-93
2023/12/26 13:57:22;;;;;;;19.48;12.18;;;;;;;;;;6076281;29;20259;-94
2023/12/26 14:00:24;;;;;;;20.52;12.32;;;;;;;;;;6079155;29;20202;-94
2023/12/26 14:03:28;;;;;;;20.30;12.00;;;;;;;;;;6082157;29;20061;-93
2023/12/26 14:06:29;;;;;;;19.90;13.38;;;;;;;;;;6084522;29;20060;-94
2023/12/26 14:09:33;;;;;;;22.65;13.05;;;;;;;;;;6084950;29;20053;-95
2023/12/26 14:12:35;;;;;;;25.30;14.43;;;;;;;;;;6084063;29;20059;-94
2023/12/26 14:15:37;;;;;;;24.55;14.27;;;;;;;;;;6085650;29;20368;-94
2023/12/26 14:18:40;;;;;;;22.98;14.05;;;;;;;;;;6080407;29;20040;-91
2023/12/26 14:21:42;;;;;;;23.38;13.20;;;;;;;;;;6082013;29;20064;-92
2023/12/26 14:24:43;;;;;;;19.13;13.10;;;;;;;;;;6079507;29;20056;-91
2023/12/26 14:27:45;;;;;;;22.63;14.13;;;;;;;;;;6080099;29;20064;-91
2023/12/26 14:30:47;;;;;;;21.13;12.95;;;;;;;;;;6079955;29;20048;-91
2023/12/26 14:33:50;;;;;;;22.73;14.27;;;;;;;;;;6079339;29;20068;-91
2023/12/26 14:36:52;;;;;;;22.92;12.60;;;;;;;;;;6077645;29;20056;-89
2023/12/26 14:39:54;;;;;;;18.35;12.90;;;;;;;;;;6084797;29;20048;-90
2023/12/26 14:42:56;;;;;;;18.60;12.43;;;;;;;;;;6082468;29;20048;-91
2023/12/26 14:45:58;;;;;;;20.35;12.82;;;;;;;;;;6081718;29;20069;-92
2023/12/26 14:49:01;;;;;;;24.20;12.63;;;;;;;;;;6079857;29;20064;-90
2023/12/26 14:52:02;;;;;;;20.87;11.90;;;;;;;;;;6080069;29;20057;-90
2023/12/26 14:55:04;;;;;;;21.02;12.73;;;;;;;;;;6082853;29;20452;-90
2023/12/26 14:58:06;;;;;;;21.25;10.68;;;;;;;;;;6084263;29;20150;-90
2023/12/26 15:01:08;;;;;;;19.05;11.27;;;;;;;;;;6080107;29;20052;-83
2023/12/26 15:04:11;;;;;;;21.52;11.25;;;;;;;;;;6079272;29;20061;-93
2023/12/26 15:07:12;;;;;;;19.00;11.10;;;;;;;;;;6080432;29;20052;-91
2023/12/26 15:10:14;;;;;;;21.48;12.48;;;;;;;;;;6083052;29;20048;-91
2023/12/26 15:13:16;;;;;;;21.13;10.80;;;;;;;;;;6080120;29;20057;-92
2023/12/26 15:16:19;;;;;;;21.55;11.00;;;;;;;;;;6081013;29;20052;-91
2023/12/26 15:19:23;;;;;;;21.40;10.80;;;;;;;;;;6079687;29;20094;-84
2023/12/26 15:22:24;;;;;;;22.13;10.70;;;;;;;;;;6080822;29;20052;-84
2023/12/26 15:25:26;;;;;;;21.05;10.85;;;;;;;;;;6080146;29;20055;-87
2023/12/26 15:28:28;;;;;;;18.98;10.15;;;;;;;;;;6082179;29;20053;-88
2023/12/26 15:31:29;;;;;;;19.38;11.02;;;;;;;;;;6081181;29;20044;-86
2023/12/26 15:34:33;;;;;;;16.98;10.20;;;;;;;;;;6079639;29;20120;-92
2023/12/26 15:37:34;;;;;;;18.17;11.20;;;;;;;;;;6080807;29;20056;-93
2023/12/26 15:40:36;;;;;;;22.90;11.80;;;;;;;;;;6083755;29;20057;-92
2023/12/26 15:43:38;;;;;;;24.20;11.70;;;;;;;;;;6081006;29;20045;-92
2023/12/26 15:46:40;;;;;;;18.08;11.02;;;;;;;;;;6081728;29;20304;-90
2023/12/26 15:49:43;;;;;;;18.73;12.07;;;;;;;;;;6080717;29;20240;-90
2023/12/26 15:52:44;;;;;;;20.65;11.55;;;;;;;;;;6080993;29;20040;-91
2023/12/26 15:55:46;;;;;;;19.67;11.85;;;;;;;;;;6079753;29;20057;-91
2023/12/26 15:58:48;;;;;;;20.73;12.40;;;;;;;;;;6082605;29;20063;-93
2023/12/26 16:01:50;;;;;;;21.15;13.45;;;;;;;;;;6078616;29;20131;-92
2023/12/26 16:04:55;;;;;;;21.95;13.32;;;;;;;;;;6080124;29;20080;-91
2023/12/26 16:07:59;;;;;;;22.55;13.07;;;;;;;;;;6079550;29;20351;-91
2023/12/26 16:11:00;;;;;;;21.38;12.07;;;;;;;;;;6079134;29;20285;-91
2023/12/26 16:14:03;;;;;;;20.35;12.88;;;;;;;;;;6079329;29;20113;-90
2023/12/26 16:17:05;;;;;;;21.02;13.38;;;;;;;;;;6082439;29;20053;-91
2023/12/26 16:20:09;;;;;;;22.75;13.75;;;;;;;;;;6082639;29;20044;-92
2023/12/26 16:23:11;;;;;;;21.00;14.50;;;;;;;;;;6084658;29;20124;-90
2023/12/26 16:26:13;;;;;;;25.45;14.40;;;;;;;;;;6080771;29;20059;-91
2023/12/26 16:29:18;;;;;;;19.10;13.00;;;;;;;;;;6081341;29;20067;-90
2023/12/26 16:32:19;;;;;;;22.48;12.80;;;;;;;;;;6079875;29;20048;-91
2023/12/26 16:35:23;;;;;;;23.08;13.73;;;;;;;;;;6087814;29;20049;-90
2023/12/26 16:38:25;;;;;;;20.50;12.43;;;;;;;;;;6078390;29;20060;-91
2023/12/26 16:41:27;;;;;;;20.20;12.68;;;;;;;;;;6083091;29;20050;-90
2023/12/26 16:44:28;;;;;;;21.83;12.60;;;;;;;;;;6076775;29;20701;-91
2023/12/26 16:47:30;;;;;;;23.08;13.48;;;;;;;;;;6077487;29;20249;-90
2023/12/26 16:50:34;;;;;;;23.27;12.90;;;;;;;;;;6079536;29;20049;-91
2023/12/26 16:53:36;;;;;;;21.27;13.73;;;;;;;;;;6081330;29;20081;-91
2023/12/26 16:56:37;;;;;;;21.15;13.48;;;;;;;;;;6078829;29;20067;-92
2023/12/26 16:59:39;;;;;;;19.90;13.25;;;;;;;;;;6079086;29;20060;-90
2023/12/26 17:02:41;;;;;;;19.63;12.45;;;;;;;;;;6077509;29;20253;-90
2023/12/26 17:05:44;;;;;;;22.38;14.18;;;;;;;;;;6079337;29;20049;-91
2023/12/26 17:08:46;;;;;;;20.23;13.73;;;;;;;;;;6082026;29;20251;-92
2023/12/26 17:11:49;;;;;;;18.08;12.38;;;;;;;;;;6077209;29;20056;-91
2023/12/26 17:14:51;;;;;;;21.33;12.75;;;;;;;;;;6079581;29;20085;-91
2023/12/26 17:17:54;;;;;;;32.17;18.02;;;;;;;;;;6087415;29;20293;-93
2023/12/26 17:20:57;;;;;;;52.20;26.05;;;;;;;;;;6080244;29;20057;-91
2023/12/26 17:23:58;;;;;;;54.57;28.53;;;;;;;;;;6083141;29;20048;-91
2023/12/26 17:27:00;;;;;;;48.03;23.98;;;;;;;;;;6077048;29;20045;-92
2023/12/26 17:30:03;;;;;;;31.67;17.20;;;;;;;;;;6082614;29;20403;-91
2023/12/26 17:33:05;;;;;;;25.83;15.15;;;;;;;;;;6074930;29;20045;-91
2023/12/26 17:36:08;;;;;;;23.10;14.38;;;;;;;;;;6079685;29;20240;-92
2023/12/26 17:39:10;;;;;;;22.88;13.80;;;;;;;;;;6077588;29;20064;-91
2023/12/26 17:42:14;;;;;;;21.48;12.93;;;;;;;;;;6077460;29;20048;-91